sensor_id;sensor_type;location;lat;lon;timestamp;temperature;humidity
15888;DHT22;56032;51.324;12.376;2022-07-04T00:02:07;22.00;99.90
15888;DHT22;56032;51.324;12.376;2022-07-04T00:04:36;22.10;99.90
15888;DHT22;56032;51.324;12.376;2022-07-04T00:07:04;22.20;99.90
15888;DHT22;56032;51.324;12.376;2022-07-04T00:09:34;22.10;99.90
15888;DHT22;56032;51.324;12.376;2022-07-04T00:12:03;21.80;99.90
15888;DHT22;56032;51.324;12.376;2022-07-04T00:14:32;21.70;99.90
15888;DHT22;56032;51.324;12.376;2022-07-04T00:17:07;21.60;99.90
15888;DHT22;56032;51.324;12.376;2022-07-04T00:19:35;21.50;99.90
15888;DHT22;56032;51.324;12.376;2022-07-04T00:22:04;21.60;99.90
15888;DHT22;56032;51.324;12.376;2022-07-04T00:24:33;21.70;99.90
15888;DHT22;56032;51.324;12.376;2022-07-04T00:27:03;21.50;99.90
15888;DHT22;56032;51.324;12.376;2022-07-04T00:29:31;21.60;99.90
15888;DHT22;56032;51.324;12.376;2022-07-04T00:32:01;21.40;99.90
15888;DHT22;56032;51.324;12.376;2022-07-04T00:34:30;21.30;99.90
15888;DHT22;56032;51.324;12.376;2022-07-04T00:36:58;21.30;99.90
15888;DHT22;56032;51.324;12.376;2022-07-04T00:39:27;21.30;99.90
15888;DHT22;56032;51.324;12.376;2022-07-04T00:41:56;21.00;99.90
15888;DHT22;56032;51.324;12.376;2022-07-04T00:44:26;20.90;99.90
15888;DHT22;56032;51.324;12.376;2022-07-04T00:46:55;20.90;99.90
15888;DHT22;56032;51.324;12.376;2022-07-04T00:49:23;20.80;99.90
15888;DHT22;56032;51.324;12.376;2022-07-04T00:51:52;20.80;99.90
15888;DHT22;56032;51.324;12.376;2022-07-04T00:54:20;20.60;99.90
15888;DHT22;56032;51.324;12.376;2022-07-04T00:56:54;20.60;99.90
15888;DHT22;56032;51.324;12.376;2022-07-04T00:59:22;20.40;99.90
15888;DHT22;56032;51.324;12.376;2022-07-04T01:01:52;20.40;99.90
15888;DHT22;56032;51.324;12.376;2022-07-04T01:04:21;20.30;99.90
15888;DHT22;56032;51.324;12.376;2022-07-04T01:06:50;20.20;99.90
15888;DHT22;56032;51.324;12.376;2022-07-04T01:09:18;20.20;99.90
15888;DHT22;56032;51.324;12.376;2022-07-04T01:11:48;20.20;99.90
15888;DHT22;56032;51.324;12.376;2022-07-04T01:14:17;20.40;99.90
15888;DHT22;56032;51.324;12.376;2022-07-04T01:16:45;20.30;99.90
15888;DHT22;56032;51.324;12.376;2022-07-04T01:19:15;20.20;99.90
15888;DHT22;56032;51.324;12.376;2022-07-04T01:21:45;20.20;99.90
15888;DHT22;56032;51.324;12.376;2022-07-04T01:24:14;20.00;99.90
15888;DHT22;56032;51.324;12.376;2022-07-04T01:26:42;19.90;99.90
15888;DHT22;56032;51.324;12.376;2022-07-04T01:29:11;19.80;99.90
15888;DHT22;56032;51.324;12.376;2022-07-04T01:31:39;19.90;99.90
15888;DHT22;56032;51.324;12.376;2022-07-04T01:34:08;19.90;99.90
15888;DHT22;56032;51.324;12.376;2022-07-04T01:36:36;19.70;99.90
15888;DHT22;56032;51.324;12.376;2022-07-04T01:39:06;19.50;99.90
15888;DHT22;56032;51.324;12.376;2022-07-04T01:41:35;19.50;99.90
15888;DHT22;56032;51.324;12.376;2022-07-04T01:44:03;19.60;99.90
15888;DHT22;56032;51.324;12.376;2022-07-04T01:46:32;19.70;99.90
15888;DHT22;56032;51.324;12.376;2022-07-04T01:49:01;19.80;99.90
15888;DHT22;56032;51.324;12.376;2022-07-04T01:51:30;19.60;99.90
15888;DHT22;56032;51.324;12.376;2022-07-04T01:53:59;19.60;99.90
15888;DHT22;56032;51.324;12.376;2022-07-04T01:56:29;19.60;99.90
15888;DHT22;56032;51.324;12.376;2022-07-04T01:58:57;19.50;99.90
15888;DHT22;56032;51.324;12.376;2022-07-04T02:01:28;19.40;99.90
15888;DHT22;56032;51.324;12.376;2022-07-04T02:04:02;19.60;99.90
15888;DHT22;56032;51.324;12.376;2022-07-04T02:06:31;19.50;99.90
15888;DHT22;56032;51.324;12.376;2022-07-04T02:08:59;19.50;99.90
15888;DHT22;56032;51.324;12.376;2022-07-04T02:11:45;19.60;99.90
15888;DHT22;56032;51.324;12.376;2022-07-04T02:14:31;19.40;99.90
15888;DHT22;56032;51.324;12.376;2022-07-04T02:17:00;19.30;99.90
15888;DHT22;56032;51.324;12.376;2022-07-04T02:19:28;19.40;99.90
15888;DHT22;56032;51.324;12.376;2022-07-04T02:21:57;19.20;99.90
15888;DHT22;56032;51.324;12.376;2022-07-04T02:24:25;19.30;99.90
15888;DHT22;56032;51.324;12.376;2022-07-04T02:26:55;19.20;99.90
15888;DHT22;56032;51.324;12.376;2022-07-04T02:29:24;19.00;99.90
15888;DHT22;56032;51.324;12.376;2022-07-04T02:31:52;19.20;99.90
15888;DHT22;56032;51.324;12.376;2022-07-04T02:34:21;19.00;99.90
15888;DHT22;56032;51.324;12.376;2022-07-04T02:36:49;19.20;99.90
15888;DHT22;56032;51.324;12.376;2022-07-04T02:39:18;19.00;99.90
15888;DHT22;56032;51.324;12.376;2022-07-04T02:41:46;18.90;99.90
15888;DHT22;56032;51.324;12.376;2022-07-04T02:44:24;18.80;99.90
15888;DHT22;56032;51.324;12.376;2022-07-04T02:46:53;18.90;99.90
15888;DHT22;56032;51.324;12.376;2022-07-04T02:49:22;18.90;99.90
15888;DHT22;56032;51.324;12.376;2022-07-04T02:51:50;18.80;99.90
15888;DHT22;56032;51.324;12.376;2022-07-04T02:54:19;18.90;99.90
15888;DHT22;56032;51.324;12.376;2022-07-04T02:56:48;18.80;99.90
15888;DHT22;56032;51.324;12.376;2022-07-04T02:59:17;18.90;99.90
15888;DHT22;56032;51.324;12.376;2022-07-04T03:01:47;18.90;99.90
15888;DHT22;56032;51.324;12.376;2022-07-04T03:04:15;19.00;99.90
15888;DHT22;56032;51.324;12.376;2022-07-04T03:06:44;18.80;99.90
15888;DHT22;56032;51.324;12.376;2022-07-04T03:09:12;18.80;99.90
15888;DHT22;56032;51.324;12.376;2022-07-04T03:11:41;18.90;99.90
15888;DHT22;56032;51.324;12.376;2022-07-04T03:14:09;19.00;99.90
15888;DHT22;56032;51.324;12.376;2022-07-04T03:16:38;19.30;99.90
15888;DHT22;56032;51.324;12.376;2022-07-04T03:19:08;19.10;99.90
15888;DHT22;56032;51.324;12.376;2022-07-04T03:21:37;18.90;99.90
15888;DHT22;56032;51.324;12.376;2022-07-04T03:24:05;19.00;99.90
15888;DHT22;56032;51.324;12.376;2022-07-04T03:26:35;19.30;99.90
15888;DHT22;56032;51.324;12.376;2022-07-04T03:29:04;19.40;99.90
15888;DHT22;56032;51.324;12.376;2022-07-04T03:31:32;19.30;99.90
15888;DHT22;56032;51.324;12.376;2022-07-04T03:34:01;19.70;99.90
15888;DHT22;56032;51.324;12.376;2022-07-04T03:36:31;19.90;99.90
15888;DHT22;56032;51.324;12.376;2022-07-04T03:39:00;19.90;99.90
15888;DHT22;56032;51.324;12.376;2022-07-04T03:41:28;20.20;99.90
15888;DHT22;56032;51.324;12.376;2022-07-04T03:43:57;20.70;99.90
15888;DHT22;56032;51.324;12.376;2022-07-04T03:46:25;21.20;99.90
15888;DHT22;56032;51.324;12.376;2022-07-04T03:48:54;21.10;99.90
15888;DHT22;56032;51.324;12.376;2022-07-04T03:51:22;21.50;99.90
15888;DHT22;56032;51.324;12.376;2022-07-04T03:53:53;21.60;99.90
15888;DHT22;56032;51.324;12.376;2022-07-04T03:56:22;21.50;99.90
15888;DHT22;56032;51.324;12.376;2022-07-04T03:58:50;21.60;99.90
15888;DHT22;56032;51.324;12.376;2022-07-04T04:01:19;21.80;99.90
15888;DHT22;56032;51.324;12.376;2022-07-04T04:03:47;21.70;99.90
15888;DHT22;56032;51.324;12.376;2022-07-04T04:06:34;22.20;99.90
15888;DHT22;56032;51.324;12.376;2022-07-04T04:09:04;22.00;99.90
15888;DHT22;56032;51.324;12.376;2022-07-04T04:11:36;21.80;99.90
15888;DHT22;56032;51.324;12.376;2022-07-04T04:14:04;20.40;99.90
15888;DHT22;56032;51.324;12.376;2022-07-04T04:16:34;20.30;99.90
15888;DHT22;56032;51.324;12.376;2022-07-04T04:19:02;20.10;99.90
15888;DHT22;56032;51.324;12.376;2022-07-04T04:21:31;20.00;99.90
15888;DHT22;56032;51.324;12.376;2022-07-04T04:23:59;19.70;99.90
15888;DHT22;56032;51.324;12.376;2022-07-04T04:26:29;20.30;99.90
15888;DHT22;56032;51.324;12.376;2022-07-04T04:28:58;21.50;99.90
15888;DHT22;56032;51.324;12.376;2022-07-04T04:31:26;22.30;99.90
15888;DHT22;56032;51.324;12.376;2022-07-04T04:33:55;23.20;99.90
15888;DHT22;56032;51.324;12.376;2022-07-04T04:36:23;23.20;99.90
15888;DHT22;56032;51.324;12.376;2022-07-04T04:38:52;23.60;99.90
15888;DHT22;56032;51.324;12.376;2022-07-04T04:41:20;23.70;99.90
15888;DHT22;56032;51.324;12.376;2022-07-04T04:43:50;23.70;99.90
15888;DHT22;56032;51.324;12.376;2022-07-04T04:46:19;23.60;99.90
15888;DHT22;56032;51.324;12.376;2022-07-04T04:48:48;23.20;99.90
15888;DHT22;56032;51.324;12.376;2022-07-04T04:51:16;23.60;99.90
15888;DHT22;56032;51.324;12.376;2022-07-04T04:53:45;23.30;99.90
15888;DHT22;56032;51.324;12.376;2022-07-04T04:56:13;22.80;99.90
15888;DHT22;56032;51.324;12.376;2022-07-04T04:58:42;22.80;99.90
15888;DHT22;56032;51.324;12.376;2022-07-04T05:01:12;22.30;99.90
15888;DHT22;56032;51.324;12.376;2022-07-04T05:04:00;21.60;99.90
15888;DHT22;56032;51.324;12.376;2022-07-04T05:06:29;21.90;99.90
15888;DHT22;56032;51.324;12.376;2022-07-04T05:08:57;21.70;99.90
15888;DHT22;56032;51.324;12.376;2022-07-04T05:11:27;21.70;99.90
15888;DHT22;56032;51.324;12.376;2022-07-04T05:13:55;21.70;99.90
15888;DHT22;56032;51.324;12.376;2022-07-04T05:16:25;21.60;99.90
15888;DHT22;56032;51.324;12.376;2022-07-04T05:18:54;21.70;99.90
15888;DHT22;56032;51.324;12.376;2022-07-04T05:21:22;21.50;99.90
15888;DHT22;56032;51.324;12.376;2022-07-04T05:23:53;21.20;99.90
15888;DHT22;56032;51.324;12.376;2022-07-04T05:26:23;21.50;99.90
15888;DHT22;56032;51.324;12.376;2022-07-04T05:28:53;21.90;99.90
15888;DHT22;56032;51.324;12.376;2022-07-04T05:31:27;22.10;99.90
15888;DHT22;56032;51.324;12.376;2022-07-04T05:33:57;21.70;99.90
15888;DHT22;56032;51.324;12.376;2022-07-04T05:36:26;21.30;99.90
15888;DHT22;56032;51.324;12.376;2022-07-04T05:38:56;21.10;99.90
15888;DHT22;56032;51.324;12.376;2022-07-04T05:41:24;21.00;99.90
15888;DHT22;56032;51.324;12.376;2022-07-04T05:43:53;21.50;99.90
15888;DHT22;56032;51.324;12.376;2022-07-04T05:46:24;21.90;99.90
15888;DHT22;56032;51.324;12.376;2022-07-04T05:48:56;21.40;99.90
15888;DHT22;56032;51.324;12.376;2022-07-04T05:51:24;21.90;99.90
15888;DHT22;56032;51.324;12.376;2022-07-04T05:53:53;21.70;99.90
15888;DHT22;56032;51.324;12.376;2022-07-04T05:56:23;21.40;99.90
15888;DHT22;56032;51.324;12.376;2022-07-04T05:58:51;21.50;99.90
15888;DHT22;56032;51.324;12.376;2022-07-04T06:01:20;21.90;99.90
15888;DHT22;56032;51.324;12.376;2022-07-04T06:03:49;22.40;99.90
15888;DHT22;56032;51.324;12.376;2022-07-04T06:06:19;22.10;99.90
15888;DHT22;56032;51.324;12.376;2022-07-04T06:08:48;22.50;99.90
15888;DHT22;56032;51.324;12.376;2022-07-04T06:11:16;22.40;99.90
15888;DHT22;56032;51.324;12.376;2022-07-04T06:13:45;22.30;99.90
15888;DHT22;56032;51.324;12.376;2022-07-04T06:16:14;22.10;99.90
15888;DHT22;56032;51.324;12.376;2022-07-04T06:18:43;22.20;99.90
15888;DHT22;56032;51.324;12.376;2022-07-04T06:21:12;22.40;99.90
15888;DHT22;56032;51.324;12.376;2022-07-04T06:23:45;22.20;99.90
15888;DHT22;56032;51.324;12.376;2022-07-04T06:26:14;22.20;99.90
15888;DHT22;56032;51.324;12.376;2022-07-04T06:28:43;21.80;99.90
15888;DHT22;56032;51.324;12.376;2022-07-04T06:31:13;22.20;99.90
15888;DHT22;56032;51.324;12.376;2022-07-04T06:33:43;22.20;99.90
15888;DHT22;56032;51.324;12.376;2022-07-04T06:36:28;22.00;99.90
15888;DHT22;56032;51.324;12.376;2022-07-04T06:38:58;21.70;99.90
15888;DHT22;56032;51.324;12.376;2022-07-04T06:41:27;22.30;99.90
15888;DHT22;56032;51.324;12.376;2022-07-04T06:43:55;22.40;99.90
15888;DHT22;56032;51.324;12.376;2022-07-04T06:46:24;22.20;99.90
15888;DHT22;56032;51.324;12.376;2022-07-04T06:48:52;21.90;99.90
15888;DHT22;56032;51.324;12.376;2022-07-04T06:51:21;21.70;99.90
15888;DHT22;56032;51.324;12.376;2022-07-04T06:53:50;22.20;99.90
15888;DHT22;56032;51.324;12.376;2022-07-04T06:56:20;22.30;99.90
15888;DHT22;56032;51.324;12.376;2022-07-04T06:58:49;21.90;99.90
15888;DHT22;56032;51.324;12.376;2022-07-04T07:01:18;21.50;99.90
15888;DHT22;56032;51.324;12.376;2022-07-04T07:03:46;21.40;99.90
15888;DHT22;56032;51.324;12.376;2022-07-04T07:06:15;21.60;99.90
15888;DHT22;56032;51.324;12.376;2022-07-04T07:08:43;22.00;99.90
15888;DHT22;56032;51.324;12.376;2022-07-04T07:11:12;22.30;99.90
15888;DHT22;56032;51.324;12.376;2022-07-04T07:13:43;22.10;99.90
15888;DHT22;56032;51.324;12.376;2022-07-04T07:16:12;22.20;99.90
15888;DHT22;56032;51.324;12.376;2022-07-04T07:18:41;22.40;99.90
15888;DHT22;56032;51.324;12.376;2022-07-04T07:21:09;22.20;99.90
15888;DHT22;56032;51.324;12.376;2022-07-04T07:23:38;22.40;99.90
15888;DHT22;56032;51.324;12.376;2022-07-04T07:26:07;22.40;99.90
15888;DHT22;56032;51.324;12.376;2022-07-04T07:28:36;22.40;99.90
15888;DHT22;56032;51.324;12.376;2022-07-04T07:31:06;22.20;99.90
15888;DHT22;56032;51.324;12.376;2022-07-04T07:33:34;22.10;99.90
15888;DHT22;56032;51.324;12.376;2022-07-04T07:36:03;22.50;99.90
15888;DHT22;56032;51.324;12.376;2022-07-04T07:38:32;22.50;99.90
15888;DHT22;56032;51.324;12.376;2022-07-04T07:41:00;22.90;99.90
15888;DHT22;56032;51.324;12.376;2022-07-04T07:43:29;22.50;99.90
15888;DHT22;56032;51.324;12.376;2022-07-04T07:45:57;22.50;99.90
15888;DHT22;56032;51.324;12.376;2022-07-04T07:48:28;22.80;99.90
15888;DHT22;56032;51.324;12.376;2022-07-04T07:50:56;22.90;99.90
15888;DHT22;56032;51.324;12.376;2022-07-04T07:53:25;22.60;99.90
15888;DHT22;56032;51.324;12.376;2022-07-04T07:55:53;22.60;99.90
15888;DHT22;56032;51.324;12.376;2022-07-04T07:58:21;22.50;99.90
15888;DHT22;56032;51.324;12.376;2022-07-04T08:00:50;22.90;99.90
15888;DHT22;56032;51.324;12.376;2022-07-04T08:03:21;23.20;99.90
15888;DHT22;56032;51.324;12.376;2022-07-04T08:06:08;22.90;99.90
15888;DHT22;56032;51.324;12.376;2022-07-04T08:08:36;22.90;99.90
15888;DHT22;56032;51.324;12.376;2022-07-04T08:11:05;22.80;99.90
15888;DHT22;56032;51.324;12.376;2022-07-04T08:13:33;23.10;99.90
15888;DHT22;56032;51.324;12.376;2022-07-04T08:16:02;23.10;99.90
15888;DHT22;56032;51.324;12.376;2022-07-04T08:18:31;22.90;99.90
15888;DHT22;56032;51.324;12.376;2022-07-04T08:21:00;22.70;99.90
15888;DHT22;56032;51.324;12.376;2022-07-04T08:23:39;22.50;99.90
15888;DHT22;56032;51.324;12.376;2022-07-04T08:26:28;22.80;99.90
15888;DHT22;56032;51.324;12.376;2022-07-04T08:28:56;22.60;98.80
15888;DHT22;56032;51.324;12.376;2022-07-04T08:31:26;22.80;99.90
15888;DHT22;56032;51.324;12.376;2022-07-04T08:34:15;22.70;99.90
15888;DHT22;56032;51.324;12.376;2022-07-04T08:36:44;23.00;99.90
15888;DHT22;56032;51.324;12.376;2022-07-04T08:39:13;23.30;99.90
15888;DHT22;56032;51.324;12.376;2022-07-04T08:41:43;23.10;99.90
15888;DHT22;56032;51.324;12.376;2022-07-04T08:44:12;23.40;99.90
15888;DHT22;56032;51.324;12.376;2022-07-04T08:46:45;23.70;99.90
15888;DHT22;56032;51.324;12.376;2022-07-04T08:49:17;23.90;98.90
15888;DHT22;56032;51.324;12.376;2022-07-04T08:51:47;23.80;97.60
15888;DHT22;56032;51.324;12.376;2022-07-04T08:54:21;23.50;99.30
15888;DHT22;56032;51.324;12.376;2022-07-04T08:57:03;23.20;99.90
15888;DHT22;56032;51.324;12.376;2022-07-04T08:59:49;22.80;99.90
15888;DHT22;56032;51.324;12.376;2022-07-04T09:02:18;22.70;99.90
15888;DHT22;56032;51.324;12.376;2022-07-04T09:04:48;22.60;99.90
15888;DHT22;56032;51.324;12.376;2022-07-04T09:07:17;22.70;99.90
15888;DHT22;56032;51.324;12.376;2022-07-04T09:09:47;23.00;99.90
15888;DHT22;56032;51.324;12.376;2022-07-04T09:12:18;23.30;99.90
15888;DHT22;56032;51.324;12.376;2022-07-04T09:14:47;23.90;99.90
15888;DHT22;56032;51.324;12.376;2022-07-04T09:17:15;23.90;98.40
15888;DHT22;56032;51.324;12.376;2022-07-04T09:19:44;23.50;98.70
15888;DHT22;56032;51.324;12.376;2022-07-04T09:22:13;23.70;97.10
15888;DHT22;56032;51.324;12.376;2022-07-04T09:24:45;23.50;97.40
15888;DHT22;56032;51.324;12.376;2022-07-04T09:30:00;23.30;96.30
15888;DHT22;56032;51.324;12.376;2022-07-04T09:32:35;23.20;96.70
15888;DHT22;56032;51.324;12.376;2022-07-04T09:35:04;23.00;97.40
15888;DHT22;56032;51.324;12.376;2022-07-04T09:37:33;23.00;98.50
15888;DHT22;56032;51.324;12.376;2022-07-04T09:40:03;23.20;97.60
15888;DHT22;56032;51.324;12.376;2022-07-04T09:42:39;23.30;95.90
15888;DHT22;56032;51.324;12.376;2022-07-04T09:45:10;23.20;95.00
15888;DHT22;56032;51.324;12.376;2022-07-04T09:47:39;23.10;94.50
15888;DHT22;56032;51.324;12.376;2022-07-04T09:50:11;22.90;94.90
15888;DHT22;56032;51.324;12.376;2022-07-04T09:52:45;23.00;94.90
15888;DHT22;56032;51.324;12.376;2022-07-04T09:55:19;22.90;93.40
15888;DHT22;56032;51.324;12.376;2022-07-04T09:57:48;22.80;94.60
15888;DHT22;56032;51.324;12.376;2022-07-04T10:00:19;22.90;95.00
15888;DHT22;56032;51.324;12.376;2022-07-04T10:02:48;23.00;94.80
15888;DHT22;56032;51.324;12.376;2022-07-04T10:05:19;23.20;93.50
15888;DHT22;56032;51.324;12.376;2022-07-04T10:07:47;23.10;94.00
15888;DHT22;56032;51.324;12.376;2022-07-04T10:10:23;23.60;93.50
15888;DHT22;56032;51.324;12.376;2022-07-04T10:12:52;23.60;92.00
15888;DHT22;56032;51.324;12.376;2022-07-04T10:15:22;23.40;91.00
15888;DHT22;56032;51.324;12.376;2022-07-04T10:17:50;23.30;92.30
15888;DHT22;56032;51.324;12.376;2022-07-04T10:20:20;23.60;92.30
15888;DHT22;56032;51.324;12.376;2022-07-04T10:22:49;23.60;91.90
15888;DHT22;56032;51.324;12.376;2022-07-04T10:25:18;23.90;91.10
15888;DHT22;56032;51.324;12.376;2022-07-04T10:27:46;23.90;90.70
15888;DHT22;56032;51.324;12.376;2022-07-04T10:30:22;24.00;90.80
15888;DHT22;56032;51.324;12.376;2022-07-04T10:32:51;23.80;90.90
15888;DHT22;56032;51.324;12.376;2022-07-04T10:38:05;23.50;90.20
15888;DHT22;56032;51.324;12.376;2022-07-04T10:40:40;23.50;90.50
15888;DHT22;56032;51.324;12.376;2022-07-04T10:46:05;23.60;90.10
15888;DHT22;56032;51.324;12.376;2022-07-04T10:48:50;23.70;90.30
15888;DHT22;56032;51.324;12.376;2022-07-04T10:51:31;24.30;90.20
15888;DHT22;56032;51.324;12.376;2022-07-04T10:54:00;24.60;88.80
15888;DHT22;56032;51.324;12.376;2022-07-04T10:56:36;24.10;88.80
15888;DHT22;56032;51.324;12.376;2022-07-04T10:59:09;23.90;90.00
15888;DHT22;56032;51.324;12.376;2022-07-04T11:01:53;23.80;90.80
15888;DHT22;56032;51.324;12.376;2022-07-04T11:04:46;24.20;90.40
15888;DHT22;56032;51.324;12.376;2022-07-04T11:07:15;24.10;89.70
15888;DHT22;56032;51.324;12.376;2022-07-04T11:09:45;23.60;91.30
15888;DHT22;56032;51.324;12.376;2022-07-04T11:12:14;23.80;91.30
15888;DHT22;56032;51.324;12.376;2022-07-04T11:14:42;23.70;91.50
15888;DHT22;56032;51.324;12.376;2022-07-04T11:17:13;23.80;92.10
15888;DHT22;56032;51.324;12.376;2022-07-04T11:19:44;23.90;92.30
15888;DHT22;56032;51.324;12.376;2022-07-04T11:22:21;24.00;93.50
15888;DHT22;56032;51.324;12.376;2022-07-04T11:24:49;24.10;92.50
15888;DHT22;56032;51.324;12.376;2022-07-04T11:27:20;24.20;92.90
15888;DHT22;56032;51.324;12.376;2022-07-04T11:29:49;24.20;92.10
15888;DHT22;56032;51.324;12.376;2022-07-04T11:32:19;24.50;91.40
15888;DHT22;56032;51.324;12.376;2022-07-04T11:34:48;24.70;91.90
15888;DHT22;56032;51.324;12.376;2022-07-04T11:37:17;24.70;90.60
15888;DHT22;56032;51.324;12.376;2022-07-04T11:39:49;24.50;90.70
15888;DHT22;56032;51.324;12.376;2022-07-04T11:42:19;25.00;91.10
15888;DHT22;56032;51.324;12.376;2022-07-04T11:45:05;25.30;88.40
15888;DHT22;56032;51.324;12.376;2022-07-04T11:47:37;25.40;86.60
15888;DHT22;56032;51.324;12.376;2022-07-04T11:50:06;25.30;87.60
15888;DHT22;56032;51.324;12.376;2022-07-04T11:52:40;25.20;87.50
15888;DHT22;56032;51.324;12.376;2022-07-04T11:55:29;24.90;88.10
15888;DHT22;56032;51.324;12.376;2022-07-04T11:57:57;25.00;89.00
15888;DHT22;56032;51.324;12.376;2022-07-04T12:00:26;25.60;88.40
15888;DHT22;56032;51.324;12.376;2022-07-04T12:03:00;25.70;87.90
15888;DHT22;56032;51.324;12.376;2022-07-04T12:05:29;25.80;86.00
15888;DHT22;56032;51.324;12.376;2022-07-04T12:07:58;25.30;85.40
15888;DHT22;56032;51.324;12.376;2022-07-04T12:10:48;25.50;88.30
15888;DHT22;56032;51.324;12.376;2022-07-04T12:13:17;25.70;84.00
15888;DHT22;56032;51.324;12.376;2022-07-04T12:15:47;25.70;83.80
15888;DHT22;56032;51.324;12.376;2022-07-04T12:18:18;25.60;84.10
15888;DHT22;56032;51.324;12.376;2022-07-04T12:20:47;25.80;83.20
15888;DHT22;56032;51.324;12.376;2022-07-04T12:23:16;25.90;83.60
15888;DHT22;56032;51.324;12.376;2022-07-04T12:25:47;25.90;82.70
15888;DHT22;56032;51.324;12.376;2022-07-04T12:28:18;25.80;82.20
15888;DHT22;56032;51.324;12.376;2022-07-04T12:30:51;25.80;83.90
15888;DHT22;56032;51.324;12.376;2022-07-04T12:33:24;25.60;82.50
15888;DHT22;56032;51.324;12.376;2022-07-04T12:35:56;25.00;84.60
15888;DHT22;56032;51.324;12.376;2022-07-04T12:38:33;25.10;88.10
15888;DHT22;56032;51.324;12.376;2022-07-04T12:41:05;25.40;85.40
15888;DHT22;56032;51.324;12.376;2022-07-04T12:43:45;25.40;84.50
15888;DHT22;56032;51.324;12.376;2022-07-04T12:46:26;25.80;84.30
15888;DHT22;56032;51.324;12.376;2022-07-04T12:48:59;26.00;81.30
15888;DHT22;56032;51.324;12.376;2022-07-04T12:51:28;25.40;82.40
15888;DHT22;56032;51.324;12.376;2022-07-04T12:53:58;25.40;83.30
15888;DHT22;56032;51.324;12.376;2022-07-04T12:56:27;25.50;82.90
15888;DHT22;56032;51.324;12.376;2022-07-04T12:58:56;25.60;82.20
15888;DHT22;56032;51.324;12.376;2022-07-04T13:01:25;25.60;81.70
15888;DHT22;56032;51.324;12.376;2022-07-04T13:03:53;25.90;81.70
15888;DHT22;56032;51.324;12.376;2022-07-04T13:06:24;26.30;79.10
15888;DHT22;56032;51.324;12.376;2022-07-04T13:08:53;26.30;75.30
15888;DHT22;56032;51.324;12.376;2022-07-04T13:11:22;26.40;75.40
15888;DHT22;56032;51.324;12.376;2022-07-04T13:14:08;26.50;73.90
15888;DHT22;56032;51.324;12.376;2022-07-04T13:16:37;26.40;72.60
15888;DHT22;56032;51.324;12.376;2022-07-04T13:19:06;26.00;72.80
15888;DHT22;56032;51.324;12.376;2022-07-04T13:21:36;26.00;73.90
15888;DHT22;56032;51.324;12.376;2022-07-04T13:24:07;26.20;74.20
15888;DHT22;56032;51.324;12.376;2022-07-04T13:26:36;25.80;73.90
15888;DHT22;56032;51.324;12.376;2022-07-04T13:29:04;25.40;73.90
15888;DHT22;56032;51.324;12.376;2022-07-04T13:31:37;25.50;75.40
15888;DHT22;56032;51.324;12.376;2022-07-04T13:34:06;25.30;76.60
15888;DHT22;56032;51.324;12.376;2022-07-04T13:36:36;25.20;76.40
15888;DHT22;56032;51.324;12.376;2022-07-04T13:39:05;25.50;77.00
15888;DHT22;56032;51.324;12.376;2022-07-04T13:41:36;25.80;76.40
15888;DHT22;56032;51.324;12.376;2022-07-04T13:44:05;26.10;75.60
15888;DHT22;56032;51.324;12.376;2022-07-04T13:46:35;25.90;74.00
15888;DHT22;56032;51.324;12.376;2022-07-04T13:49:03;25.90;75.00
15888;DHT22;56032;51.324;12.376;2022-07-04T13:51:40;26.00;74.60
15888;DHT22;56032;51.324;12.376;2022-07-04T13:54:09;26.10;74.60
15888;DHT22;56032;51.324;12.376;2022-07-04T13:56:38;26.20;73.60
15888;DHT22;56032;51.324;12.376;2022-07-04T13:59:07;26.20;74.60
15888;DHT22;56032;51.324;12.376;2022-07-04T14:01:36;26.40;73.40
15888;DHT22;56032;51.324;12.376;2022-07-04T14:04:05;26.40;72.20
15888;DHT22;56032;51.324;12.376;2022-07-04T14:06:33;26.10;71.60
15888;DHT22;56032;51.324;12.376;2022-07-04T14:09:03;26.00;73.40
15888;DHT22;56032;51.324;12.376;2022-07-04T14:11:32;26.40;71.40
15888;DHT22;56032;51.324;12.376;2022-07-04T14:14:00;26.20;71.20
15888;DHT22;56032;51.324;12.376;2022-07-04T14:16:29;26.30;71.30
15888;DHT22;56032;51.324;12.376;2022-07-04T14:18:58;26.60;70.70
15888;DHT22;56032;51.324;12.376;2022-07-04T14:21:27;26.50;70.20
15888;DHT22;56032;51.324;12.376;2022-07-04T14:23:55;26.60;68.30
15888;DHT22;56032;51.324;12.376;2022-07-04T14:26:26;26.60;67.40
15888;DHT22;56032;51.324;12.376;2022-07-04T14:28:55;26.60;67.50
15888;DHT22;56032;51.324;12.376;2022-07-04T14:31:24;26.40;66.80
15888;DHT22;56032;51.324;12.376;2022-07-04T14:33:53;26.30;66.80
15888;DHT22;56032;51.324;12.376;2022-07-04T14:36:24;26.40;66.80
15888;DHT22;56032;51.324;12.376;2022-07-04T14:38:52;26.40;67.40
15888;DHT22;56032;51.324;12.376;2022-07-04T14:41:21;26.40;66.70
15888;DHT22;56032;51.324;12.376;2022-07-04T14:43:51;26.40;66.10
15888;DHT22;56032;51.324;12.376;2022-07-04T14:46:22;26.50;65.90
15888;DHT22;56032;51.324;12.376;2022-07-04T14:48:50;26.40;64.50
15888;DHT22;56032;51.324;12.376;2022-07-04T14:51:19;26.40;64.30
15888;DHT22;56032;51.324;12.376;2022-07-04T14:53:48;26.40;63.70
15888;DHT22;56032;51.324;12.376;2022-07-04T14:56:16;26.50;64.00
15888;DHT22;56032;51.324;12.376;2022-07-04T14:58:45;26.50;63.50
15888;DHT22;56032;51.324;12.376;2022-07-04T15:01:15;26.70;64.00
15888;DHT22;56032;51.324;12.376;2022-07-04T15:03:44;26.70;64.00
15888;DHT22;56032;51.324;12.376;2022-07-04T15:06:13;26.60;64.00
15888;DHT22;56032;51.324;12.376;2022-07-04T15:08:41;26.50;64.40
15888;DHT22;56032;51.324;12.376;2022-07-04T15:11:10;26.10;63.20
15888;DHT22;56032;51.324;12.376;2022-07-04T15:13:44;26.40;64.30
15888;DHT22;56032;51.324;12.376;2022-07-04T15:16:12;26.30;64.10
15888;DHT22;56032;51.324;12.376;2022-07-04T15:18:51;26.30;64.10
15888;DHT22;56032;51.324;12.376;2022-07-04T15:21:20;26.40;64.30
15888;DHT22;56032;51.324;12.376;2022-07-04T15:24:06;26.30;63.60
15888;DHT22;56032;51.324;12.376;2022-07-04T15:26:42;26.30;63.50
15888;DHT22;56032;51.324;12.376;2022-07-04T15:29:11;26.40;64.00
15888;DHT22;56032;51.324;12.376;2022-07-04T15:31:41;26.40;64.00
15888;DHT22;56032;51.324;12.376;2022-07-04T15:34:13;26.30;62.90
15888;DHT22;56032;51.324;12.376;2022-07-04T15:36:42;26.40;64.30
15888;DHT22;56032;51.324;12.376;2022-07-04T15:39:11;26.30;63.50
15888;DHT22;56032;51.324;12.376;2022-07-04T15:41:40;26.40;63.50
15888;DHT22;56032;51.324;12.376;2022-07-04T15:44:09;26.40;63.00